Main page
METAR-TAF:

METAR-TAF

Airports :

Halmstad Airport

Halmstad, Sweden

latitude: 56-41N, longitude: 012-50E, elevation: 30 m

Current weather observation

The report was made 25 minutes ago, at 17:50 UTC
Wind 5 kt from the West/Northwest, varying between West and Northwest
Temperature 17°C
Humidity 72%
Pressure 1014 hPa
Visibility 10 km or more

METAR: ESMT 221750Z AUTO 29005KT 260V320 9999 NCD 17/12 Q1014

Time: 20:15 (18:15 UTC)

Forecast

The report was made 4 hours and 14 minutes ago, at 14:01 UTC
Forecast valid from 22 at 15 UTC to 22 at 19 UTC
Wind 8 kt from the West
Visibility 10 km or more
Few clouds at a height of 2000 ft

TAF: ESMT 221401Z 2215/2219 26008KT 9999 FEW020

Weather observations and forecasts of more than 4000 airports (METAR and TAF reports).

The available stations are represented by yellow and red dots on the map.

Hover mouse over dot to see the name of the station.

Then click to see weather observations and forecasts.

To change the map : click on the green buttons with a black cross to zoom in, on the green button with a dash to zoom out, or on the green arrows for adjacent maps.


METAR-TAF: